Time;durP1;ratioP1;P1;durP2;ratioP2;P2;SDS_P1;SDS_P2;PMS_P1;PMS_P2;Temp;Humidity;BMP_temperature;BMP_pressure;BME280_temperature;BME280_humidity;BME280_pressure;Samples;Min_cycle;Max_cycle;Signal;HPM_P1;HPM_P2
2022/09/28 00:00:31;;;;;;;0.70;0.70;;;8.50;99.90;;;;;;6166752;23;20322;-84
2022/09/28 00:02:58;;;;;;;0.40;0.40;;;8.50;99.90;;;;;;6194892;23;20008;-83
2022/09/28 00:05:27;;;;;;;0.40;0.40;;;8.50;99.90;;;;;;6192884;23;20009;-84
2022/09/28 00:07:53;;;;;;;0.40;0.40;;;8.50;99.90;;;;;;6167354;23;20009;-85
2022/09/28 00:10:21;;;;;;;0.45;0.43;;;8.50;99.90;;;;;;6194538;23;20001;-85
2022/09/28 00:12:48;;;;;;;0.40;0.40;;;8.50;99.90;;;;;;6194141;23;19984;-84
2022/09/28 00:15:13;;;;;;;2.67;0.98;;;8.50;99.90;;;;;;6195989;23;20011;-84
2022/09/28 00:17:39;;;;;;;1.13;0.88;;;8.50;99.90;;;;;;6169052;23;20033;-84
2022/09/28 00:20:05;;;;;;;1.33;0.60;;;8.50;99.90;;;;;;6193103;23;20004;-84
2022/09/28 00:22:31;;;;;;;0.73;0.57;;;8.50;99.90;;;;;;6167970;23;20008;-85
2022/09/28 00:24:56;;;;;;;0.30;0.30;;;8.50;99.90;;;;;;6194735;23;20416;-83
2022/09/28 00:27:22;;;;;;;0.40;0.40;;;8.50;99.90;;;;;;6165212;23;20013;-84
2022/09/28 00:29:48;;;;;;;0.85;0.40;;;8.50;99.90;;;;;;6191525;23;20009;-85
2022/09/28 00:32:14;;;;;;;0.32;0.32;;;8.50;99.90;;;;;;6192422;23;20012;-83
2022/09/28 00:34:44;;;;;;;0.30;0.30;;;8.60;99.90;;;;;;6165838;23;20036;-85
2022/09/28 00:37:11;;;;;;;0.52;0.45;;;8.60;99.90;;;;;;6190845;23;20245;-83
2022/09/28 00:39:40;;;;;;;0.57;0.50;;;8.60;99.90;;;;;;6191303;23;20005;-84
2022/09/28 00:42:25;;;;;;;0.90;0.35;;;8.60;99.90;;;;;;6193762;23;20005;-84
2022/09/28 00:44:55;;;;;;;5.07;0.45;;;8.60;99.90;;;;;;6193052;23;20007;-83
2022/09/28 00:47:48;;;;;;;0.68;0.50;;;8.50;99.90;;;;;;6167491;23;20079;-85
2022/09/28 00:50:28;;;;;;;0.60;0.60;;;8.60;99.90;;;;;;6193052;23;20029;-84
2022/09/28 00:53:29;;;;;;;1.50;0.50;;;8.60;99.90;;;;;;6166394;23;20009;-85
2022/09/28 00:56:02;;;;;;;0.40;0.40;;;8.60;99.90;;;;;;6186602;23;20008;-85
2022/09/28 00:58:35;;;;;;;0.30;0.30;;;8.60;99.90;;;;;;6193397;23;20004;-85
2022/09/28 01:01:02;;;;;;;0.43;0.43;;;8.60;99.90;;;;;;6192704;23;20321;-85
2022/09/28 01:03:28;;;;;;;0.40;0.40;;;8.60;99.90;;;;;;6193968;23;19997;-84
2022/09/28 01:05:57;;;;;;;0.40;0.40;;;8.50;99.90;;;;;;6192955;23;20008;-84
2022/09/28 01:08:26;;;;;;;0.28;0.28;;;8.50;99.90;;;;;;6194275;23;20088;-85
2022/09/28 01:10:52;;;;;;;0.57;0.30;;;8.50;99.90;;;;;;6179893;23;20024;-84
2022/09/28 01:13:20;;;;;;;0.30;0.30;;;8.40;99.90;;;;;;6197560;23;19998;-82
2022/09/28 01:16:14;;;;;;;0.73;0.30;;;8.40;99.90;;;;;;6171990;23;20009;-83
2022/09/28 01:19:00;;;;;;;0.93;0.40;;;8.30;99.90;;;;;;6171967;23;20008;-84
2022/09/28 01:21:26;;;;;;;0.55;0.55;;;8.30;99.90;;;;;;6193209;23;20034;-84
2022/09/28 01:24:29;;;;;;;0.65;0.40;;;8.20;99.90;;;;;;6195452;23;20072;-83
2022/09/28 01:27:14;;;;;;;0.68;0.43;;;8.20;99.90;;;;;;6164340;23;20091;-83
2022/09/28 01:29:43;;;;;;;3.50;0.60;;;8.20;99.90;;;;;;6163148;23;20011;-84
2022/09/28 01:32:28;;;;;;;0.95;0.50;;;8.20;99.90;;;;;;6168803;23;20092;-82
2022/09/28 01:35:06;;;;;;;1.65;0.77;;;8.20;99.90;;;;;;6212831;23;19997;-81
2022/09/28 01:37:58;;;;;;;0.30;0.30;;;8.20;99.90;;;;;;6212985;23;20019;-82
2022/09/28 01:40:26;;;;;;;0.73;0.43;;;8.20;99.90;;;;;;6187359;23;20016;-80
2022/09/28 01:43:03;;;;;;;1.40;0.40;;;8.10;99.90;;;;;;6187176;23;20004;-81
2022/09/28 01:45:36;;;;;;;2.47;0.43;;;8.10;99.90;;;;;;6181601;23;20005;-83
2022/09/28 01:48:08;;;;;;;2.28;0.50;;;8.20;99.90;;;;;;6198328;23;20333;-83
2022/09/28 01:50:39;;;;;;;1.00;0.65;;;8.30;99.90;;;;;;6168746;23;20043;-83
2022/09/28 01:53:29;;;;;;;0.40;0.40;;;8.30;99.90;;;;;;6166236;23;20005;-83
2022/09/28 01:56:03;;;;;;;2.92;0.43;;;8.30;99.90;;;;;;6195619;23;20008;-84
2022/09/28 01:58:48;;;;;;;0.52;0.20;;;8.40;99.90;;;;;;6193045;23;20004;-83
2022/09/28 02:01:33;;;;;;;0.65;0.30;;;8.50;99.90;;;;;;6170503;23;20016;-84
2022/09/28 02:04:17;;;;;;;0.52;0.52;;;8.50;99.90;;;;;;6202763;23;19989;-83
2022/09/28 02:11:07;;;;;;;1.45;0.40;;;8.60;99.90;;;;;;6212191;23;20031;-82
2022/09/28 02:14:04;;;;;;;1.27;0.50;;;8.60;99.90;;;;;;6091562;23;20030;-81
2022/09/28 02:16:41;;;;;;;0.20;0.20;;;8.60;99.90;;;;;;6175877;23;19989;-84
2022/09/28 02:19:15;;;;;;;0.50;0.30;;;8.60;99.90;;;;;;6190510;23;20001;-83
2022/09/28 02:21:50;;;;;;;1.08;0.30;;;8.60;99.90;;;;;;6191850;23;19985;-83
2022/09/28 02:24:27;;;;;;;0.63;0.30;;;8.60;99.90;;;;;;6191743;23;19977;-84
2022/09/28 02:26:58;;;;;;;0.30;0.30;;;8.60;99.90;;;;;;6188251;23;20013;-78
2022/09/28 02:29:23;;;;;;;1.65;0.20;;;8.60;99.90;;;;;;6195236;23;20005;-78
2022/09/28 02:31:50;;;;;;;1.60;0.35;;;8.60;99.90;;;;;;6191720;23;20147;-78
2022/09/28 02:34:16;;;;;;;0.38;0.35;;;8.60;99.90;;;;;;6197710;23;20065;-80
2022/09/28 02:36:43;;;;;;;0.60;0.35;;;8.70;99.90;;;;;;6201122;23;20005;-80
2022/09/28 02:39:15;;;;;;;0.20;0.20;;;8.60;99.90;;;;;;6209669;23;20005;-80
2022/09/28 02:41:41;;;;;;;0.38;0.30;;;8.60;99.90;;;;;;6234619;22;20001;-82
2022/09/28 02:44:42;;;;;;;0.20;0.20;;;8.60;99.90;;;;;;6210248;23;20048;-81
2022/09/28 02:47:46;;;;;;;0.30;0.30;;;8.60;99.90;;;;;;6201533;23;20013;-79
2022/09/28 02:50:23;;;;;;;0.20;0.20;;;8.50;99.90;;;;;;6169956;23;20028;-81
2022/09/28 02:53:04;;;;;;;0.20;0.20;;;8.50;99.90;;;;;;6224676;23;20187;-80
2022/09/28 02:55:47;;;;;;;0.47;0.40;;;8.40;99.90;;;;;;6200456;23;20032;-79
2022/09/28 02:58:32;;;;;;;2.35;0.28;;;8.40;99.90;;;;;;6198688;23;20005;-80
2022/09/28 03:01:16;;;;;;;0.80;0.30;;;8.40;99.90;;;;;;6200290;23;20055;-79
2022/09/28 03:04:10;;;;;;;0.50;0.30;;;8.40;99.90;;;;;;6199277;23;20092;-80
2022/09/28 03:06:38;;;;;;;2.33;0.50;;;8.30;99.90;;;;;;6197319;23;20056;-78
2022/09/28 03:09:32;;;;;;;0.40;0.28;;;8.30;99.90;;;;;;6198746;23;20449;-80
2022/09/28 03:12:03;;;;;;;2.08;0.40;;;8.30;99.90;;;;;;6198666;23;20005;-80
2022/09/28 03:14:29;;;;;;;1.23;0.40;;;8.30;99.90;;;;;;6197837;23;20017;-78
2022/09/28 03:16:55;;;;;;;0.20;0.20;;;8.20;99.90;;;;;;6199209;23;20005;-80
2022/09/28 03:19:25;;;;;;;0.35;0.30;;;8.20;99.90;;;;;;6202444;23;20016;-79
2022/09/28 03:21:51;;;;;;;0.75;0.20;;;8.20;99.90;;;;;;6202852;23;20036;-80
2022/09/28 03:24:17;;;;;;;0.20;0.20;;;8.20;99.90;;;;;;6201392;23;20008;-80
2022/09/28 03:26:43;;;;;;;0.20;0.20;;;8.20;99.90;;;;;;6208022;23;20004;-81
2022/09/28 03:29:08;;;;;;;0.22;0.22;;;8.30;99.90;;;;;;6228647;23;19997;-80
2022/09/28 03:31:34;;;;;;;0.30;0.30;;;8.30;99.90;;;;;;6200830;23;20001;-79
2022/09/28 03:33:59;;;;;;;0.45;0.40;;;8.30;99.90;;;;;;6227886;23;20040;-80
2022/09/28 03:36:25;;;;;;;1.95;0.40;;;8.20;99.90;;;;;;6228332;23;19996;-81
2022/09/28 03:38:53;;;;;;;0.45;0.20;;;8.20;99.90;;;;;;6200107;23;20132;-79
2022/09/28 03:41:20;;;;;;;0.57;0.30;;;8.20;99.90;;;;;;6225950;23;19996;-80
2022/09/28 03:43:45;;;;;;;1.73;0.35;;;8.20;99.90;;;;;;6227066;23;20013;-80
2022/09/28 03:46:11;;;;;;;0.68;0.50;;;8.20;99.90;;;;;;6226783;23;20000;-78
2022/09/28 03:48:36;;;;;;;1.73;0.40;;;8.20;99.90;;;;;;6223082;23;20000;-78
2022/09/28 03:51:05;;;;;;;0.25;0.25;;;8.20;99.90;;;;;;6222497;23;19997;-79
2022/09/28 03:53:32;;;;;;;0.28;0.28;;;8.30;99.90;;;;;;6221936;23;20498;-80
2022/09/28 03:56:03;;;;;;;0.30;0.30;;;8.30;99.90;;;;;;6228725;23;20000;-81
2022/09/28 03:58:29;;;;;;;0.45;0.30;;;8.20;99.90;;;;;;6230057;23;20012;-80
2022/09/28 04:01:04;;;;;;;0.73;0.32;;;8.30;99.90;;;;;;6230529;23;20001;-80
2022/09/28 04:03:30;;;;;;;1.55;0.20;;;8.30;99.90;;;;;;6232837;23;20001;-79
2022/09/28 04:05:56;;;;;;;0.30;0.30;;;8.30;99.90;;;;;;6232291;23;20071;-80
2022/09/28 04:08:21;;;;;;;0.20;0.20;;;8.30;99.90;;;;;;6205348;23;20008;-81
2022/09/28 04:10:47;;;;;;;0.80;0.13;;;8.30;99.90;;;;;;6232260;23;20039;-80
2022/09/28 04:13:13;;;;;;;0.28;0.20;;;8.40;99.90;;;;;;6233056;23;20001;-80
2022/09/28 04:15:38;;;;;;;0.47;0.32;;;8.40;99.90;;;;;;6205958;23;20011;-80
2022/09/28 04:18:10;;;;;;;1.38;0.30;;;8.40;99.90;;;;;;6203679;23;20035;-80
2022/09/28 04:20:36;;;;;;;0.30;0.30;;;8.40;99.90;;;;;;6229566;23;20012;-80
2022/09/28 04:23:02;;;;;;;0.57;0.38;;;8.50;99.90;;;;;;6228050;23;20032;-79
2022/09/28 04:25:28;;;;;;;1.05;0.38;;;8.50;99.90;;;;;;6231458;23;20009;-81
2022/09/28 04:30:37;;;;;;;0.20;0.20;;;8.40;99.90;;;;;;6231643;23;20011;-81
2022/09/28 04:33:03;;;;;;;1.08;0.30;;;8.40;99.90;;;;;;6206253;23;20455;-80
2022/09/28 04:35:29;;;;;;;0.40;0.30;;;8.40;99.90;;;;;;6235862;23;20004;-81
2022/09/28 04:37:57;;;;;;;0.43;0.30;;;8.40;99.90;;;;;;6238721;23;20100;-79
2022/09/28 04:40:23;;;;;;;0.30;0.30;;;8.40;99.90;;;;;;6203567;23;20005;-81
2022/09/28 04:42:54;;;;;;;0.38;0.32;;;8.40;99.90;;;;;;6230744;23;20001;-81
2022/09/28 04:45:19;;;;;;;4.72;0.52;;;8.40;99.90;;;;;;6229649;23;20027;-79
2022/09/28 04:47:45;;;;;;;0.60;0.60;;;8.30;99.90;;;;;;6230225;23;20326;-80
2022/09/28 04:50:11;;;;;;;0.40;0.40;;;8.30;99.90;;;;;;6224792;23;20005;-79
2022/09/28 04:52:36;;;;;;;0.47;0.40;;;8.30;99.90;;;;;;6223868;23;20009;-80
2022/09/28 04:55:03;;;;;;;0.35;0.35;;;8.30;99.90;;;;;;6226142;23;20003;-81
2022/09/28 04:57:29;;;;;;;0.60;0.43;;;8.30;99.90;;;;;;6200231;23;20024;-81
2022/09/28 04:59:55;;;;;;;0.40;0.40;;;8.30;99.90;;;;;;6230811;23;20323;-82
2022/09/28 05:02:20;;;;;;;0.40;0.38;;;8.20;99.90;;;;;;6229774;23;20100;-80
2022/09/28 05:04:46;;;;;;;0.22;0.22;;;8.30;99.90;;;;;;6235559;23;20054;-80
2022/09/28 05:07:11;;;;;;;0.30;0.30;;;8.30;99.90;;;;;;6240282;23;20032;-82
2022/09/28 05:09:37;;;;;;;0.40;0.40;;;8.30;99.90;;;;;;6240395;23;20007;-81
2022/09/28 05:12:03;;;;;;;1.10;0.52;;;8.30;99.90;;;;;;6214350;23;20110;-82
2022/09/28 05:14:28;;;;;;;0.60;0.30;;;8.30;99.90;;;;;;6214969;23;20052;-82
2022/09/28 05:16:54;;;;;;;0.30;0.30;;;8.30;99.90;;;;;;6214331;23;20022;-81
2022/09/28 05:19:20;;;;;;;0.32;0.32;;;8.30;99.90;;;;;;6235591;23;20071;-80
2022/09/28 05:21:45;;;;;;;0.68;0.30;;;8.40;99.90;;;;;;6230855;23;19997;-81
2022/09/28 05:24:11;;;;;;;0.45;0.30;;;8.40;99.90;;;;;;6231070;23;20490;-80
2022/09/28 05:26:37;;;;;;;0.32;0.32;;;8.40;99.90;;;;;;6231005;23;20447;-82
2022/09/28 05:29:03;;;;;;;0.30;0.30;;;8.40;99.90;;;;;;6230591;23;20048;-79
2022/09/28 05:31:29;;;;;;;1.63;0.50;;;8.40;99.90;;;;;;6203401;23;20000;-78
2022/09/28 05:33:54;;;;;;;0.50;0.50;;;8.40;99.90;;;;;;6229705;23;20001;-78
2022/09/28 05:36:21;;;;;;;1.50;0.30;;;8.40;99.90;;;;;;6202214;23;20038;-79
2022/09/28 05:38:46;;;;;;;0.40;0.40;;;8.40;99.90;;;;;;6221052;23;20080;-78
2022/09/28 05:41:12;;;;;;;0.77;0.68;;;8.50;99.90;;;;;;6227091;23;20000;-79
2022/09/28 05:43:38;;;;;;;1.88;0.40;;;8.50;99.90;;;;;;6228514;23;20074;-80
2022/09/28 05:46:05;;;;;;;0.50;0.50;;;8.50;99.90;;;;;;6227923;23;20004;-79
2022/09/28 05:48:30;;;;;;;0.60;0.60;;;8.50;99.90;;;;;;6221677;23;20335;-79
2022/09/28 05:50:59;;;;;;;0.50;0.50;;;8.50;99.90;;;;;;6222348;23;19997;-80
2022/09/28 05:53:25;;;;;;;0.57;0.50;;;8.60;99.90;;;;;;6224293;23;20004;-79
2022/09/28 05:55:50;;;;;;;1.50;0.43;;;8.60;99.90;;;;;;6224794;23;20062;-79
2022/09/28 05:58:16;;;;;;;0.43;0.40;;;8.60;99.90;;;;;;6236868;23;20065;-79
2022/09/28 06:00:42;;;;;;;0.47;0.47;;;8.60;99.90;;;;;;6237186;23;20026;-79
2022/09/28 06:03:13;;;;;;;1.10;0.40;;;8.60;99.90;;;;;;6237407;23;20005;-78
2022/09/28 06:05:39;;;;;;;0.60;0.60;;;8.60;99.90;;;;;;6205823;23;20004;-81
2022/09/28 06:08:07;;;;;;;0.52;0.52;;;8.60;99.90;;;;;;6209336;23;20130;-80
2022/09/28 06:10:33;;;;;;;1.35;0.60;;;8.60;99.90;;;;;;6234817;23;19996;-80
2022/09/28 06:12:59;;;;;;;2.28;0.65;;;8.60;99.90;;;;;;6207685;23;20031;-80
2022/09/28 06:15:28;;;;;;;0.95;0.60;;;8.50;99.90;;;;;;6229802;23;19996;-80
2022/09/28 06:17:58;;;;;;;0.80;0.43;;;8.50;99.90;;;;;;6227207;23;20102;-79
2022/09/28 06:20:26;;;;;;;0.98;0.52;;;8.50;99.90;;;;;;6228588;23;20000;-80
2022/09/28 06:22:52;;;;;;;1.15;0.80;;;8.50;99.90;;;;;;6230249;23;20124;-80
2022/09/28 06:25:18;;;;;;;0.50;0.50;;;8.50;99.90;;;;;;6227235;23;20008;-81
2022/09/28 06:28:00;;;;;;;1.05;0.50;;;8.50;99.90;;;;;;6203183;23;20017;-81
2022/09/28 06:30:28;;;;;;;1.13;0.63;;;8.50;99.90;;;;;;6228689;23;20027;-79
2022/09/28 06:32:56;;;;;;;0.63;0.40;;;8.60;99.90;;;;;;6195011;23;20231;-78
2022/09/28 06:35:24;;;;;;;1.15;0.50;;;8.60;99.90;;;;;;6223476;23;20011;-80
2022/09/28 06:37:50;;;;;;;3.88;0.75;;;8.60;99.90;;;;;;6199220;23;20008;-78
2022/09/28 06:40:16;;;;;;;0.68;0.65;;;8.60;99.90;;;;;;6226888;23;20109;-80
2022/09/28 06:42:42;;;;;;;1.20;0.60;;;8.60;99.90;;;;;;6227387;23;20008;-79
2022/09/28 06:45:09;;;;;;;0.88;0.88;;;8.60;99.90;;;;;;6227175;23;20020;-79
2022/09/28 06:47:35;;;;;;;1.27;0.60;;;8.70;99.90;;;;;;6229853;23;20051;-79
2022/09/28 06:50:00;;;;;;;0.57;0.57;;;8.70;99.90;;;;;;6229152;23;20507;-78
2022/09/28 06:52:26;;;;;;;1.15;0.43;;;8.70;99.90;;;;;;6229587;23;20008;-79
2022/09/28 06:54:52;;;;;;;0.52;0.52;;;8.80;99.90;;;;;;6228217;23;20434;-80
2022/09/28 06:57:18;;;;;;;1.17;0.60;;;8.80;99.90;;;;;;6226100;23;20007;-79
2022/09/28 06:59:43;;;;;;;2.05;0.63;;;8.90;99.90;;;;;;6222694;23;20049;-80
2022/09/28 07:02:13;;;;;;;1.42;0.88;;;8.90;99.90;;;;;;6201363;23;20009;-79
2022/09/28 07:04:42;;;;;;;0.70;0.60;;;9.00;99.90;;;;;;6196598;23;20024;-79
2022/09/28 07:07:11;;;;;;;0.85;0.55;;;9.00;99.90;;;;;;6227779;23;20005;-79
2022/09/28 07:09:37;;;;;;;0.95;0.70;;;9.10;99.90;;;;;;6200479;23;20047;-79
2022/09/28 07:12:03;;;;;;;1.95;0.63;;;9.10;99.90;;;;;;6227389;23;20048;-81
2022/09/28 07:14:32;;;;;;;0.98;0.40;;;9.10;99.90;;;;;;6225781;23;20023;-78
2022/09/28 07:16:57;;;;;;;3.92;0.55;;;9.10;99.90;;;;;;6202977;23;20011;-79
2022/09/28 07:19:23;;;;;;;3.45;0.90;;;9.10;99.90;;;;;;6230112;23;20304;-80
2022/09/28 07:21:51;;;;;;;1.90;1.30;;;9.20;99.90;;;;;;6230856;23;20015;-79
2022/09/28 07:24:17;;;;;;;1.92;1.13;;;9.20;99.90;;;;;;6203435;23;20458;-78
2022/09/28 07:26:44;;;;;;;0.95;0.90;;;9.20;99.90;;;;;;6227124;23;20009;-80
2022/09/28 07:29:10;;;;;;;0.98;0.63;;;9.30;99.90;;;;;;6229822;23;20051;-82
2022/09/28 07:31:37;;;;;;;0.88;0.52;;;9.30;99.90;;;;;;6230656;23;20076;-79
2022/09/28 07:34:03;;;;;;;0.75;0.38;;;9.30;99.90;;;;;;6230659;23;19996;-79
2022/09/28 07:36:33;;;;;;;0.82;0.50;;;9.30;99.90;;;;;;6224740;23;20016;-79
2022/09/28 07:39:02;;;;;;;1.20;0.75;;;9.40;99.90;;;;;;6198746;23;20007;-80
2022/09/28 07:41:33;;;;;;;1.00;0.50;;;9.40;99.90;;;;;;6204322;23;20000;-80
2022/09/28 07:44:06;;;;;;;0.83;0.50;;;9.40;99.90;;;;;;6232528;23;19996;-79
2022/09/28 07:46:38;;;;;;;0.95;0.85;;;9.40;99.90;;;;;;6233095;23;20225;-80
2022/09/28 07:49:06;;;;;;;0.50;0.50;;;9.40;99.90;;;;;;6236593;23;20048;-81
2022/09/28 07:51:33;;;;;;;0.50;0.43;;;9.50;99.90;;;;;;6242585;22;20001;-81
2022/09/28 07:53:58;;;;;;;1.58;0.70;;;9.50;99.90;;;;;;6242325;22;20035;-81
2022/09/28 07:56:24;;;;;;;0.57;0.50;;;9.50;99.90;;;;;;6242455;22;20012;-81
2022/09/28 07:58:50;;;;;;;1.33;1.10;;;9.50;99.90;;;;;;6233687;23;20008;-80
2022/09/28 08:01:17;;;;;;;1.90;1.25;;;9.50;99.90;;;;;;6227246;23;20012;-79
2022/09/28 08:03:44;;;;;;;2.47;1.20;;;9.50;99.90;;;;;;6203177;23;20061;-78
2022/09/28 08:06:11;;;;;;;1.02;0.50;;;9.50;99.90;;;;;;6204203;23;20067;-80
2022/09/28 08:08:40;;;;;;;1.23;0.90;;;9.50;99.90;;;;;;6206396;23;20023;-80
2022/09/28 08:11:07;;;;;;;0.50;0.50;;;9.60;99.90;;;;;;6241816;22;19989;-81
2022/09/28 08:13:32;;;;;;;1.80;0.75;;;9.60;99.90;;;;;;6233870;23;20031;-78
2022/09/28 08:16:02;;;;;;;2.00;0.70;;;9.70;99.90;;;;;;6232229;23;20004;-80
2022/09/28 08:18:27;;;;;;;0.70;0.70;;;9.80;99.90;;;;;;6204956;23;19997;-81
2022/09/28 08:23:38;;;;;;;1.60;0.70;;;9.80;99.90;;;;;;6242036;22;20012;-82
2022/09/28 08:33:33;;;;;;;0.93;0.65;;;10.00;99.90;;;;;;6199978;23;20060;-83
2022/09/28 08:36:10;;;;;;;1.80;0.70;;;10.10;99.90;;;;;;6201393;23;20033;-83
2022/09/28 08:38:41;;;;;;;1.08;0.90;;;10.00;99.90;;;;;;6223937;23;20011;-83
2022/09/28 08:42:03;;;;;;;3.25;1.10;;;10.00;99.90;;;;;;6201239;23;20009;-83
2022/09/28 08:44:41;;;;;;;0.52;0.52;;;10.00;99.90;;;;;;6222068;23;20064;-84
2022/09/28 08:51:21;;;;;;;0.68;0.68;;;10.00;99.90;;;;;;6197587;23;20380;-83
2022/09/28 08:54:38;;;;;;;0.30;0.30;;;9.90;99.90;;;;;;6195151;23;20378;-83
2022/09/28 08:57:57;;;;;;;1.13;0.60;;;9.90;99.90;;;;;;6189337;23;20316;-83
2022/09/28 09:21:01;;;;;;;1.92;0.60;;;10.10;99.90;;;;;;6165784;23;20024;-82
2022/09/28 09:24:02;;;;;;;2.95;0.25;;;9.40;99.90;;;;;;6165219;23;20164;-84
2022/09/28 09:26:37;;;;;;;1.23;0.50;;;8.90;99.90;;;;;;6220347;23;20009;-82
2022/09/28 09:29:22;;;;;;;1.33;0.55;;;;;;;;;;6222292;22;20060;-84
2022/09/28 09:32:02;;;;;;;1.25;0.30;;;8.50;99.90;;;;;;6197682;23;20005;-83
2022/09/28 09:34:47;;;;;;;4.72;0.70;;;8.40;99.90;;;;;;6219994;23;20474;-84
2022/09/28 09:37:34;;;;;;;0.95;0.40;;;8.30;99.90;;;;;;6195898;23;20008;-84
2022/09/28 09:40:44;;;;;;;1.88;0.50;;;8.40;99.90;;;;;;6217999;23;20008;-82
2022/09/28 09:43:16;;;;;;;0.43;0.32;;;8.50;99.90;;;;;;6194634;23;19997;-83
2022/09/28 09:45:54;;;;;;;1.48;0.80;;;8.60;99.90;;;;;;6193841;23;19997;-84
2022/09/28 09:48:28;;;;;;;1.15;0.60;;;8.60;99.90;;;;;;6193964;23;20076;-84
2022/09/28 09:51:29;;;;;;;1.95;0.70;;;8.70;99.90;;;;;;6217204;23;20055;-84
2022/09/28 09:54:00;;;;;;;2.90;0.70;;;8.60;99.90;;;;;;6213697;22;20009;-84
2022/09/28 09:56:36;;;;;;;0.73;0.50;;;8.70;99.90;;;;;;6214289;23;20012;-84
2022/09/28 09:59:18;;;;;;;2.13;0.75;;;8.70;99.90;;;;;;6197806;23;20028;-83
2022/09/28 10:01:44;;;;;;;0.55;0.55;;;8.80;99.90;;;;;;6189412;23;20008;-83
2022/09/28 10:04:27;;;;;;;0.63;0.60;;;8.90;99.90;;;;;;6220596;23;19998;-85
2022/09/28 10:07:01;;;;;;;1.35;0.75;;;9.00;99.90;;;;;;6203936;23;20083;-84
2022/09/28 10:09:41;;;;;;;1.67;0.60;;;9.10;99.90;;;;;;6196168;23;20031;-85
2022/09/28 10:12:10;;;;;;;1.38;0.80;;;9.00;99.90;;;;;;6232166;22;20065;-84
2022/09/28 10:14:36;;;;;;;1.80;0.95;;;9.10;99.90;;;;;;6211363;23;20017;-83
2022/09/28 10:17:02;;;;;;;1.55;0.80;;;9.20;99.90;;;;;;6236345;22;20004;-83
2022/09/28 10:19:32;;;;;;;0.88;0.50;;;9.30;99.90;;;;;;6212363;23;20017;-82
2022/09/28 10:22:04;;;;;;;0.50;0.50;;;9.40;99.90;;;;;;6212149;23;19990;-81
2022/09/28 10:24:46;;;;;;;0.88;0.60;;;9.50;99.90;;;;;;6236219;22;20004;-82
2022/09/28 10:27:19;;;;;;;0.50;0.50;;;9.60;99.90;;;;;;6208640;23;20024;-83
2022/09/28 10:29:54;;;;;;;1.95;0.60;;;9.60;99.90;;;;;;6232692;23;20009;-82
2022/09/28 10:32:22;;;;;;;0.82;0.63;;;9.60;99.90;;;;;;6201968;23;20005;-84
2022/09/28 10:34:50;;;;;;;1.67;0.85;;;9.70;99.90;;;;;;6195339;23;20008;-85
2022/09/28 10:37:17;;;;;;;2.10;0.95;;;9.80;99.90;;;;;;6215629;23;20005;-83
2022/09/28 10:39:53;;;;;;;1.50;1.17;;;9.90;99.90;;;;;;6215098;23;20001;-83
2022/09/28 10:42:22;;;;;;;2.45;1.00;;;10.10;99.90;;;;;;6218592;23;20001;-84
2022/09/28 10:44:50;;;;;;;1.38;1.10;;;10.20;99.90;;;;;;6214281;23;20008;-84
2022/09/28 10:47:19;;;;;;;3.40;1.27;;;10.40;99.90;;;;;;6215932;23;20009;-83
2022/09/28 10:49:49;;;;;;;1.30;0.75;;;10.50;99.90;;;;;;6195556;23;20001;-83
2022/09/28 10:52:44;;;;;;;1.45;0.85;;;10.50;99.90;;;;;;6190741;23;20001;-83
2022/09/28 10:55:29;;;;;;;1.75;0.90;;;10.50;99.90;;;;;;6211113;23;20021;-84
2022/09/28 10:57:55;;;;;;;0.93;0.93;;;10.50;99.90;;;;;;6214331;23;20024;-83
2022/09/28 11:00:30;;;;;;;1.33;0.90;;;10.40;99.90;;;;;;6214337;23;20005;-83
2022/09/28 11:02:56;;;;;;;1.10;0.77;;;10.40;99.90;;;;;;6214722;23;20016;-85
2022/09/28 11:05:26;;;;;;;3.25;1.00;;;10.50;99.90;;;;;;6213943;23;20041;-84
2022/09/28 11:07:54;;;;;;;2.72;1.30;;;10.50;99.90;;;;;;6216423;23;20033;-84
2022/09/28 11:10:27;;;;;;;2.15;1.38;;;10.60;99.90;;;;;;6219371;23;20001;-84
2022/09/28 11:12:54;;;;;;;1.52;1.02;;;10.70;99.90;;;;;;6216724;23;20005;-85
2022/09/28 11:15:32;;;;;;;1.17;1.08;;;10.80;99.90;;;;;;6197105;23;20085;-83
2022/09/28 11:18:21;;;;;;;2.67;1.20;;;11.00;99.90;;;;;;6195899;23;20422;-83
2022/09/28 11:20:48;;;;;;;0.98;0.85;;;11.10;99.90;;;;;;6194544;23;19997;-85
2022/09/28 11:23:25;;;;;;;1.50;1.27;;;11.10;99.90;;;;;;6217362;23;20012;-82
2022/09/28 11:26:17;;;;;;;2.33;1.10;;;11.20;99.90;;;;;;6221593;23;20021;-85
2022/09/28 11:28:50;;;;;;;1.88;1.27;;;11.20;99.90;;;;;;6199664;23;20008;-84
2022/09/28 11:31:22;;;;;;;1.95;1.15;;;11.20;99.90;;;;;;6227441;23;20076;-82
2022/09/28 11:33:48;;;;;;;;;;;11.20;99.90;;;;;;6229694;23;20083;-84
2022/09/28 11:36:21;;;;;;;1.30;1.05;;;11.30;99.90;;;;;;6204558;23;19899;-84
2022/09/28 11:38:47;;;;;;;1.45;1.20;;;11.20;99.90;;;;;;6204731;23;20017;-85
2022/09/28 11:41:37;;;;;;;2.58;1.38;;;11.20;99.90;;;;;;6199112;23;20044;-82
2022/09/28 11:44:30;;;;;;;2.65;1.30;;;11.20;99.90;;;;;;6196136;23;20012;-84
2022/09/28 11:47:26;;;;;;;3.53;1.75;;;11.40;99.90;;;;;;6221919;23;20005;-85
2022/09/28 11:50:40;;;;;;;2.13;1.25;;;11.60;99.90;;;;;;6197486;23;20001;-84
2022/09/28 11:53:12;;;;;;;2.75;1.17;;;11.60;99.90;;;;;;6144239;23;20002;-84
2022/09/28 11:55:53;;;;;;;2.17;1.50;;;11.60;99.90;;;;;;6224273;22;20013;-83
2022/09/28 11:58:27;;;;;;;2.20;1.20;;;11.70;99.90;;;;;;6208735;23;20000;-83
2022/09/28 12:01:03;;;;;;;1.98;1.38;;;11.80;99.90;;;;;;6209193;23;20001;-82
2022/09/28 12:03:39;;;;;;;2.42;1.10;;;11.80;99.90;;;;;;6198898;23;20008;-83
2022/09/28 12:06:10;;;;;;;1.95;1.33;;;11.70;99.90;;;;;;6197357;23;20016;-83
2022/09/28 12:08:44;;;;;;;2.28;1.25;;;11.60;99.90;;;;;;6198136;23;20343;-83
2022/09/28 12:11:19;;;;;;;2.50;1.52;;;11.60;99.90;;;;;;6197885;23;20052;-82
2022/09/28 12:13:48;;;;;;;1.33;1.08;;;11.50;99.90;;;;;;6199974;23;20000;-84
2022/09/28 12:16:24;;;;;;;2.15;1.00;;;11.50;99.90;;;;;;6225793;23;20051;-83
2022/09/28 12:18:56;;;;;;;3.25;1.10;;;11.70;99.90;;;;;;6200784;23;20004;-83
2022/09/28 12:21:36;;;;;;;3.60;1.08;;;11.70;99.90;;;;;;6226375;23;20075;-84
2022/09/28 12:24:21;;;;;;;5.43;1.42;;;11.80;99.90;;;;;;6199648;23;20004;-82
2022/09/28 12:27:21;;;;;;;1.63;0.90;;;11.70;99.90;;;;;;6226899;23;20016;-86
2022/09/28 12:29:52;;;;;;;2.03;1.17;;;11.40;99.90;;;;;;6197516;23;20059;-83
2022/09/28 12:32:36;;;;;;;2.75;1.38;;;11.10;99.90;;;;;;6201533;23;20051;-84
2022/09/28 12:35:09;;;;;;;2.78;1.35;;;11.00;99.90;;;;;;6200176;23;20036;-84
2022/09/28 12:38:07;;;;;;;1.15;1.02;;;10.90;99.90;;;;;;6199311;23;20008;-85
2022/09/28 12:40:51;;;;;;;1.10;1.00;;;10.80;99.90;;;;;;6199393;23;20008;-84
2022/09/28 12:43:17;;;;;;;2.42;1.35;;;10.80;99.90;;;;;;6206526;22;20011;-84
2022/09/28 12:46:20;;;;;;;4.88;3.25;;;10.80;99.90;;;;;;6237259;22;20004;-84
2022/09/28 12:49:23;;;;;;;30.65;18.08;;;10.70;99.90;;;;;;6233151;22;20017;-84
2022/09/28 12:51:52;;;;;;;9.20;6.45;;;10.60;99.90;;;;;;6204522;23;20004;-86
2022/09/28 12:54:37;;;;;;;6.82;4.10;;;10.40;99.90;;;;;;6226106;23;20337;-85
2022/09/28 12:57:35;;;;;;;11.65;6.05;;;10.40;99.90;;;;;;6198653;23;20007;-83
2022/09/28 13:00:28;;;;;;;10.15;5.40;;;10.40;99.90;;;;;;6202995;23;20005;-83
2022/09/28 13:03:07;;;;;;;23.48;12.93;;;10.50;99.90;;;;;;6202072;23;20004;-83
2022/09/28 13:05:54;;;;;;;15.70;10.13;;;10.50;99.90;;;;;;6224038;23;20046;-83
2022/09/28 13:08:29;;;;;;;5.60;3.67;;;10.40;99.90;;;;;;6222845;22;20013;-83
2022/09/28 13:11:07;;;;;;;8.98;4.55;;;10.30;99.90;;;;;;6197362;23;20001;-84
2022/09/28 13:14:02;;;;;;;4.68;2.97;;;10.30;99.90;;;;;;6224147;23;20003;-84
2022/09/28 13:16:47;;;;;;;8.52;6.13;;;10.30;99.90;;;;;;6211687;23;20447;-85
2022/09/28 13:19:16;;;;;;;4.25;2.53;;;10.30;99.90;;;;;;6199608;23;19996;-84
2022/09/28 13:22:00;;;;;;;7.03;4.20;;;10.20;99.90;;;;;;6221748;23;19997;-83
2022/09/28 13:24:35;;;;;;;5.82;4.13;;;10.20;99.90;;;;;;6195801;23;20423;-84
2022/09/28 13:27:09;;;;;;;13.35;8.38;;;10.00;99.90;;;;;;6222028;23;20009;-83
2022/09/28 13:29:36;;;;;;;3.40;2.00;;;9.90;99.90;;;;;;6223466;23;20266;-83
2022/09/28 13:32:02;;;;;;;21.98;11.02;;;9.90;99.90;;;;;;6196758;22;20001;-82
2022/09/28 13:34:32;;;;;;;12.95;6.22;;;9.90;99.90;;;;;;6221175;23;20011;-84
2022/09/28 13:37:30;;;;;;;5.93;2.72;;;10.00;99.90;;;;;;6222026;23;20004;-83
2022/09/28 13:39:57;;;;;;;4.07;1.50;;;10.10;99.90;;;;;;6162184;22;20000;-85
2022/09/28 13:42:35;;;;;;;3.17;1.17;;;10.10;99.90;;;;;;6223165;23;20297;-83
2022/09/28 13:45:10;;;;;;;3.30;1.42;;;10.20;99.90;;;;;;6197646;23;20037;-85
2022/09/28 13:47:58;;;;;;;2.25;1.50;;;10.20;99.90;;;;;;6196538;23;20008;-84
2022/09/28 13:50:42;;;;;;;3.92;1.98;;;10.30;99.90;;;;;;6197156;22;20027;-84
2022/09/28 13:53:32;;;;;;;5.75;3.35;;;10.20;99.90;;;;;;6197378;23;20017;-85
2022/09/28 13:56:13;;;;;;;17.35;8.95;;;10.10;99.90;;;;;;6225507;23;20012;-84
2022/09/28 13:58:56;;;;;;;18.67;8.90;;;10.10;99.90;;;;;;6196648;23;20059;-84
2022/09/28 14:01:36;;;;;;;11.48;5.15;;;10.00;99.90;;;;;;6225607;23;20001;-84
2022/09/28 14:04:19;;;;;;;7.18;4.32;;;9.90;99.90;;;;;;6198575;23;20071;-84
2022/09/28 14:07:20;;;;;;;6.90;2.55;;;10.00;99.90;;;;;;6197188;23;19996;-85
2022/09/28 14:09:47;;;;;;;11.77;6.10;;;10.00;99.90;;;;;;6221526;23;19997;-84